Time;durP1;ratioP1;P1;durP2;ratioP2;P2;SDS_P1;SDS_P2;PMS_P1;PMS_P2;Temp;Humidity;BMP_temperature;BMP_pressure;BME280_temperature;BME280_humidity;BME280_pressure;Samples;Min_cycle;Max_cycle;Signal;HPM_P1;HPM_P2
2021/04/14 00:00:29;;;;;;;4.83;3.40;;;6.60;1.00;;;;;;5055294;28;20882;-79
2021/04/14 00:02:57;;;;;;;4.80;2.80;;;6.60;1.00;;;;;;5051649;28;20487;-80
2021/04/14 00:05:27;;;;;;;3.13;2.47;;;6.60;1.00;;;;;;5050550;28;20491;-77
2021/04/14 00:07:54;;;;;;;4.40;3.00;;;6.60;1.00;;;;;;5041206;28;20460;-77
2021/04/14 00:10:24;;;;;;;2.67;2.47;;;6.70;1.00;;;;;;5055104;28;20472;-78
2021/04/14 00:12:52;;;;;;;3.30;2.73;;;6.70;1.00;;;;;;5053289;28;20496;-78
2021/04/14 00:15:23;;;;;;;4.70;2.90;;;6.60;1.00;;;;;;5057979;28;20464;-79
2021/04/14 00:17:51;;;;;;;3.83;2.37;;;6.60;1.00;;;;;;5049182;28;20482;-79
2021/04/14 00:20:19;;;;;;;4.50;3.37;;;6.60;1.00;;;;;;5037382;28;20468;-79
2021/04/14 00:22:46;;;;;;;6.17;2.60;;;6.60;1.00;;;;;;5037975;28;21010;-79
2021/04/14 00:25:15;;;;;;;4.10;2.90;;;6.60;1.00;;;;;;5057771;28;20461;-75
2021/04/14 00:27:43;;;;;;;3.63;2.70;;;6.50;1.00;;;;;;5051770;28;20897;-79
2021/04/14 00:30:11;;;;;;;2.57;2.23;;;6.50;1.00;;;;;;5061515;28;20461;-78
2021/04/14 00:32:38;;;;;;;3.10;2.80;;;6.40;1.00;;;;;;5039407;28;20856;-77
2021/04/14 00:35:09;;;;;;;2.90;2.63;;;6.40;1.00;;;;;;5053936;28;20530;-77
2021/04/14 00:37:36;;;;;;;4.37;2.83;;;6.30;1.00;;;;;;5049509;28;20473;-79
2021/04/14 00:40:05;;;;;;;7.53;3.33;;;6.40;1.00;;;;;;5044210;28;20473;-76
2021/04/14 00:42:32;;;;;;;2.90;2.43;;;6.30;1.00;;;;;;5051305;28;20484;-78
2021/04/14 00:45:00;;;;;;;2.97;2.43;;;6.30;1.00;;;;;;5046063;28;20475;-79
2021/04/14 00:47:27;;;;;;;5.33;2.87;;;6.30;1.00;;;;;;5044102;28;20505;-77
2021/04/14 00:49:54;;;;;;;2.43;2.13;;;6.50;1.00;;;;;;5040354;28;20468;-76
2021/04/14 00:52:22;;;;;;;2.70;2.30;;;6.30;1.00;;;;;;5034310;28;20492;-77
2021/04/14 00:54:50;;;;;;;4.07;2.63;;;6.30;1.00;;;;;;5045481;28;20464;-78
2021/04/14 00:57:17;;;;;;;2.60;2.40;;;6.30;1.00;;;;;;5044143;28;20468;-78
2021/04/14 00:59:44;;;;;;;2.83;2.30;;;6.30;1.00;;;;;;5055531;28;20471;-78
2021/04/14 01:02:11;;;;;;;2.50;2.30;;;6.30;1.00;;;;;;5045272;28;20460;-77
2021/04/14 01:04:40;;;;;;;5.43;2.73;;;6.30;1.00;;;;;;5051284;28;20475;-78
2021/04/14 01:07:07;;;;;;;4.20;3.10;;;6.20;1.00;;;;;;5046714;28;20472;-78
2021/04/14 01:09:35;;;;;;;5.43;3.07;;;6.40;1.00;;;;;;5053320;28;20474;-79
2021/04/14 01:12:03;;;;;;;4.50;3.00;;;6.10;1.00;;;;;;5050233;28;20496;-79
2021/04/14 01:14:30;;;;;;;2.83;2.57;;;6.00;1.00;;;;;;5054372;28;20494;-80
2021/04/14 01:16:57;;;;;;;3.93;2.50;;;6.00;1.00;;;;;;5049709;28;20475;-79
2021/04/14 01:19:24;;;;;;;2.83;2.60;;;6.00;1.00;;;;;;5048055;28;20478;-79
2021/04/14 01:21:52;;;;;;;6.67;2.90;;;6.00;1.00;;;;;;5042431;28;20479;-76
2021/04/14 01:24:20;;;;;;;3.00;2.47;;;6.00;1.00;;;;;;5039377;28;20494;-78
2021/04/14 01:26:47;;;;;;;2.47;2.20;;;6.00;1.00;;;;;;5047211;28;20470;-78
2021/04/14 01:29:15;;;;;;;2.33;2.13;;;6.00;1.00;;;;;;5043012;28;20503;-77
2021/04/14 01:31:42;;;;;;;2.70;2.50;;;6.00;1.00;;;;;;5042199;28;20485;-79
2021/04/14 01:34:12;;;;;;;3.25;2.95;;;5.90;1.00;;;;;;5050528;28;20504;-78
2021/04/14 01:36:39;;;;;;;2.87;2.27;;;5.90;1.00;;;;;;5041853;28;20670;-78
2021/04/14 01:39:10;;;;;;;2.33;2.13;;;5.90;1.00;;;;;;5048626;28;21210;-77
2021/04/14 01:41:38;;;;;;;2.60;2.40;;;5.90;1.00;;;;;;5053054;28;20208;-77
2021/04/14 01:44:09;;;;;;;3.63;2.20;;;6.00;1.00;;;;;;5053752;28;20322;-79
2021/04/14 01:46:37;;;;;;;2.65;2.45;;;5.90;1.00;;;;;;5054063;28;20203;-79
2021/04/14 01:49:05;;;;;;;2.53;2.33;;;5.90;1.00;;;;;;5051025;28;20197;-77
2021/04/14 01:51:33;;;;;;;3.27;2.50;;;5.90;1.00;;;;;;5036170;28;20258;-78
2021/04/14 01:54:01;;;;;;;3.90;2.35;;;5.90;1.00;;;;;;5039512;28;20495;-80
2021/04/14 01:56:30;;;;;;;3.35;1.85;;;5.80;1.00;;;;;;5041167;28;20215;-79
2021/04/14 01:58:57;;;;;;;2.30;1.97;;;5.80;1.00;;;;;;5053273;28;20201;-78
2021/04/14 02:01:25;;;;;;;4.60;3.10;;;5.80;1.00;;;;;;5040796;28;21670;-79
2021/04/14 02:03:52;;;;;;;31.37;13.80;;;5.80;1.00;;;;;;5046420;28;20232;-76
2021/04/14 02:06:19;;;;;;;18.75;8.20;;;5.80;1.00;;;;;;5043352;28;20468;-79
2021/04/14 02:08:46;;;;;;;9.18;5.32;;;5.80;1.00;;;;;;5057979;28;20211;-80
2021/04/14 02:11:16;;;;;;;3.70;2.40;;;5.90;1.00;;;;;;5052452;28;20212;-79
2021/04/14 02:13:45;;;;;;;3.10;2.90;;;5.70;1.00;;;;;;5048192;28;20280;-79
2021/04/14 02:16:15;;;;;;;2.10;1.90;;;5.80;1.00;;;;;;5052429;28;20211;-80
2021/04/14 02:18:43;;;;;;;3.20;2.83;;;5.70;1.00;;;;;;5047371;28;20468;-78
2021/04/14 02:21:10;;;;;;;2.03;1.92;;;5.70;1.00;;;;;;5035704;28;20885;-79
2021/04/14 02:23:40;;;;;;;4.05;1.90;;;5.60;1.00;;;;;;5044639;28;20229;-78
2021/04/14 02:26:11;;;;;;;2.33;2.17;;;5.50;1.00;;;;;;5048065;28;20599;-77
2021/04/14 02:28:38;;;;;;;2.70;2.50;;;5.50;1.00;;;;;;5043122;28;20484;-79
2021/04/14 02:31:08;;;;;;;2.78;2.38;;;5.50;1.00;;;;;;5050135;28;21419;-78
2021/04/14 02:33:36;;;;;;;2.30;2.03;;;5.60;1.00;;;;;;5045440;28;20235;-80
2021/04/14 02:36:04;;;;;;;3.67;2.13;;;5.50;1.00;;;;;;5047286;28;20226;-77
2021/04/14 02:38:31;;;;;;;2.67;2.28;;;5.80;1.00;;;;;;5051458;28;20214;-79
2021/04/14 02:40:59;;;;;;;3.63;2.10;;;5.70;1.00;;;;;;5054408;28;20222;-80
2021/04/14 02:43:26;;;;;;;32.83;3.50;;;5.50;1.00;;;;;;5054289;28;20228;-80
2021/04/14 02:45:53;;;;;;;2.40;1.90;;;5.50;1.00;;;;;;5054407;28;20210;-78
2021/04/14 02:48:21;;;;;;;3.60;1.98;;;5.50;1.00;;;;;;5050769;28;20210;-77
2021/04/14 02:50:48;;;;;;;2.35;1.85;;;5.50;1.00;;;;;;5038881;28;20221;-80
2021/04/14 02:53:15;;;;;;;2.63;2.28;;;5.50;1.00;;;;;;5039924;28;20810;-79
2021/04/14 02:55:43;;;;;;;4.15;2.28;;;5.50;1.00;;;;;;5055414;28;20669;-79
2021/04/14 02:58:10;;;;;;;4.50;2.40;;;5.50;1.00;;;;;;5045847;28;20776;-79
2021/04/14 03:00:37;;;;;;;2.20;1.92;;;5.40;1.00;;;;;;5050858;28;20476;-79
2021/04/14 03:03:04;;;;;;;4.70;2.08;;;5.40;1.00;;;;;;5038426;28;20232;-78
2021/04/14 03:05:34;;;;;;;4.83;2.00;;;5.40;1.00;;;;;;5046543;28;20212;-83
2021/04/14 03:08:01;;;;;;;3.92;2.20;;;5.40;1.00;;;;;;5044205;28;20484;-80
2021/04/14 03:10:30;;;;;;;2.92;1.98;;;5.30;1.00;;;;;;5050330;28;20228;-80
2021/04/14 03:12:57;;;;;;;5.38;2.40;;;5.40;1.00;;;;;;5056174;28;20232;-78
2021/04/14 03:15:28;;;;;;;2.75;2.00;;;5.30;1.00;;;;;;5058574;28;20213;-80
2021/04/14 03:17:55;;;;;;;6.10;2.80;;;5.20;1.00;;;;;;5054434;28;20202;-80
2021/04/14 03:20:23;;;;;;;2.97;2.30;;;5.30;1.00;;;;;;5051203;28;20203;-77
2021/04/14 03:22:53;;;;;;;3.25;1.77;;;5.30;1.00;;;;;;5043174;28;20728;-80
2021/04/14 03:25:21;;;;;;;4.15;2.42;;;5.30;1.00;;;;;;5043187;28;20207;-79
2021/04/14 03:27:48;;;;;;;3.05;2.72;;;5.30;1.00;;;;;;5049364;28;20204;-79
2021/04/14 03:30:17;;;;;;;2.50;2.10;;;5.20;1.00;;;;;;5049836;28;20205;-79
2021/04/14 03:32:45;;;;;;;6.63;1.60;;;5.20;1.00;;;;;;5044207;28;20325;-80
2021/04/14 03:35:13;;;;;;;2.53;1.77;;;5.20;1.00;;;;;;5048607;28;20244;-78
2021/04/14 03:37:40;;;;;;;1.90;1.70;;;5.20;1.00;;;;;;5046821;28;20305;-78
2021/04/14 03:40:09;;;;;;;4.00;1.67;;;5.10;1.00;;;;;;5057914;28;20213;-76
2021/04/14 03:42:37;;;;;;;2.00;1.90;;;5.10;1.00;;;;;;5049341;28;20231;-79
2021/04/14 03:45:11;;;;;;;1.63;1.45;;;5.10;1.00;;;;;;5041841;28;20214;-80
2021/04/14 03:47:38;;;;;;;3.42;1.58;;;5.00;1.00;;;;;;5049553;28;20778;-78
2021/04/14 03:50:07;;;;;;;2.45;2.25;;;5.00;1.00;;;;;;5037383;28;20206;-78
2021/04/14 03:52:35;;;;;;;5.63;3.08;;;5.00;1.00;;;;;;5039565;28;20948;-75
2021/04/14 03:55:02;;;;;;;3.00;1.95;;;5.30;1.00;;;;;;5045285;28;20230;-77
2021/04/14 03:57:30;;;;;;;3.20;2.33;;;5.00;1.00;;;;;;5055164;28;20206;-78
2021/04/14 03:59:57;;;;;;;4.07;3.00;;;5.10;1.00;;;;;;5054296;28;20471;-78
2021/04/14 04:02:24;;;;;;;4.05;2.80;;;5.30;1.00;;;;;;5052395;28;20465;-77
2021/04/14 04:04:52;;;;;;;3.57;2.80;;;5.10;1.00;;;;;;5050462;28;20212;-78
2021/04/14 04:07:20;;;;;;;5.10;2.27;;;5.10;1.00;;;;;;5056840;28;20496;-79
2021/04/14 04:09:47;;;;;;;2.47;2.28;;;5.00;1.00;;;;;;5051156;28;20466;-79
2021/04/14 04:12:14;;;;;;;2.03;1.58;;;5.00;1.00;;;;;;5050222;28;20790;-77
2021/04/14 04:14:47;;;;;;;2.77;2.30;;;5.00;1.00;;;;;;5049734;28;20661;-77
2021/04/14 04:17:15;;;;;;;3.05;1.70;;;5.00;1.00;;;;;;5047056;28;20473;-79
2021/04/14 04:19:43;;;;;;;2.63;2.20;;;5.00;1.00;;;;;;5038866;28;20239;-78
2021/04/14 04:22:11;;;;;;;3.40;2.08;;;5.00;1.00;;;;;;5041385;28;20259;-76
2021/04/14 04:24:38;;;;;;;4.90;3.33;;;4.90;1.00;;;;;;5039161;28;20214;-78
2021/04/14 04:27:06;;;;;;;3.25;1.92;;;5.00;1.00;;;;;;5054899;28;20475;-75
2021/04/14 04:29:33;;;;;;;3.90;2.67;;;4.90;1.00;;;;;;5051763;28;20695;-77
2021/04/14 04:32:01;;;;;;;3.35;2.53;;;5.00;1.00;;;;;;5053329;28;20486;-79
2021/04/14 04:34:28;;;;;;;5.35;3.20;;;5.00;1.00;;;;;;5047951;28;20227;-77
2021/04/14 04:36:56;;;;;;;3.55;2.88;;;4.90;1.00;;;;;;5049265;28;20220;-78
2021/04/14 04:39:23;;;;;;;3.08;2.20;;;4.90;1.00;;;;;;5050702;28;20209;-77
2021/04/14 04:41:50;;;;;;;3.95;2.70;;;4.90;1.00;;;;;;5057312;28;20205;-77
2021/04/14 04:44:18;;;;;;;3.13;2.88;;;4.80;1.00;;;;;;5045779;28;20220;-79
2021/04/14 04:46:45;;;;;;;2.63;2.42;;;4.80;1.00;;;;;;5046889;28;20211;-79
2021/04/14 04:49:13;;;;;;;4.50;2.28;;;4.80;1.00;;;;;;5049791;28;20210;-79
2021/04/14 04:51:41;;;;;;;10.00;2.63;;;4.80;1.00;;;;;;5034784;28;20208;-77
2021/04/14 04:54:09;;;;;;;3.80;2.97;;;4.80;1.00;;;;;;5033424;28;20239;-79
2021/04/14 04:56:36;;;;;;;3.50;2.70;;;4.80;1.00;;;;;;5052008;28;20207;-79
2021/04/14 04:59:04;;;;;;;3.30;2.47;;;4.80;1.00;;;;;;5044669;28;20209;-76
2021/04/14 05:01:32;;;;;;;2.25;2.03;;;4.80;1.00;;;;;;5041604;28;20212;-78
2021/04/14 05:04:00;;;;;;;3.67;2.28;;;5.10;1.00;;;;;;5047023;28;20240;-78
2021/04/14 05:06:28;;;;;;;7.23;2.73;;;4.80;1.00;;;;;;5044123;28;20201;-80
2021/04/14 05:08:56;;;;;;;2.97;2.60;;;4.90;1.00;;;;;;5041055;28;20499;-78
2021/04/14 05:11:23;;;;;;;3.30;2.75;;;4.90;1.00;;;;;;5054300;28;20218;-79
2021/04/14 05:13:50;;;;;;;2.58;2.17;;;4.90;1.00;;;;;;5043386;28;20255;-79
2021/04/14 05:16:17;;;;;;;2.58;2.08;;;4.80;1.00;;;;;;5055807;28;20214;-78
2021/04/14 05:18:44;;;;;;;6.28;3.53;;;4.80;1.00;;;;;;5039985;28;20215;-78
2021/04/14 05:21:12;;;;;;;2.97;2.40;;;4.80;1.00;;;;;;5038375;28;20219;-76
2021/04/14 05:23:40;;;;;;;3.40;2.70;;;4.80;1.00;;;;;;5039878;28;20471;-79
2021/04/14 05:26:07;;;;;;;6.55;3.25;;;4.80;1.00;;;;;;5043962;28;20837;-80
2021/04/14 05:28:34;;;;;;;7.03;2.70;;;4.80;1.00;;;;;;5046601;28;20213;-79
2021/04/14 05:31:01;;;;;;;5.05;2.72;;;4.80;1.00;;;;;;5044116;28;20215;-79
2021/04/14 05:33:29;;;;;;;4.37;3.20;;;4.80;1.00;;;;;;5040251;28;20481;-78
2021/04/14 05:35:56;;;;;;;5.38;4.88;;;4.80;1.00;;;;;;5041773;28;20482;-79
2021/04/14 05:38:24;;;;;;;3.97;2.55;;;4.90;1.00;;;;;;5051377;28;20255;-78
2021/04/14 05:40:52;;;;;;;5.07;4.10;;;4.90;1.00;;;;;;5058463;28;20279;-81
2021/04/14 05:43:21;;;;;;;8.68;5.90;;;4.90;1.00;;;;;;5034720;28;20503;-80
2021/04/14 05:45:54;;;;;;;5.68;4.50;;;4.90;1.00;;;;;;5042410;28;20212;-79
2021/04/14 05:48:21;;;;;;;5.18;4.35;;;5.00;1.00;;;;;;5032970;28;20988;-78
2021/04/14 05:50:48;;;;;;;5.55;3.70;;;5.10;1.00;;;;;;5038228;28;20225;-79
2021/04/14 05:53:17;;;;;;;4.53;3.95;;;5.10;1.00;;;;;;5035370;28;20467;-79
2021/04/14 05:55:44;;;;;;;8.93;3.92;;;5.10;1.00;;;;;;5038043;28;20212;-78
2021/04/14 05:58:12;;;;;;;3.95;3.45;;;5.10;1.00;;;;;;5031042;28;20211;-78
2021/04/14 06:00:39;;;;;;;4.68;2.92;;;5.20;1.00;;;;;;5030986;28;20233;-78
2021/04/14 06:03:06;;;;;;;6.50;4.13;;;5.20;1.00;;;;;;5036339;28;22939;-79
2021/04/14 06:05:34;;;;;;;5.43;2.83;;;5.30;1.00;;;;;;5031141;28;20587;-79
2021/04/14 06:08:01;;;;;;;2.60;1.80;;;5.20;1.00;;;;;;5029901;28;20312;-78
2021/04/14 06:10:28;;;;;;;4.55;1.85;;;5.20;1.00;;;;;;5038040;28;20214;-78
2021/04/14 06:12:56;;;;;;;5.63;2.38;;;5.20;1.00;;;;;;5043721;28;20234;-79
2021/04/14 06:15:30;;;;;;;2.22;2.03;;;5.30;1.00;;;;;;5048166;28;20216;-79
2021/04/14 06:17:57;;;;;;;6.60;3.85;;;5.40;1.00;;;;;;5043118;28;20215;-80
2021/04/14 06:20:27;;;;;;;4.28;2.92;;;5.60;1.00;;;;;;5047441;28;20206;-79
2021/04/14 06:22:57;;;;;;;3.20;2.50;;;6.00;1.00;;;;;;5052537;28;20234;-78
2021/04/14 06:25:25;;;;;;;5.10;2.63;;;6.00;1.00;;;;;;5052051;28;20469;-78
2021/04/14 06:27:58;;;;;;;3.70;2.33;;;6.10;1.00;;;;;;5052799;28;20259;-78
2021/04/14 06:30:26;;;;;;;4.13;2.67;;;6.20;1.00;;;;;;5046581;28;20207;-77
2021/04/14 06:32:54;;;;;;;2.90;2.63;;;6.40;1.00;;;;;;5052998;28;20498;-79
2021/04/14 06:35:24;;;;;;;5.00;3.20;;;6.50;1.00;;;;;;5056957;28;20466;-79
2021/04/14 06:37:52;;;;;;;4.93;2.87;;;6.90;1.00;;;;;;5053790;28;20211;-78
2021/04/14 06:40:43;;;;;;;5.63;2.73;;;6.80;1.00;;;;;;5051313;28;20465;-78
2021/04/14 06:43:27;;;;;;;6.23;3.67;;;6.90;1.00;;;;;;5052055;28;21074;-78
2021/04/14 06:45:59;;;;;;;8.87;2.97;;;7.00;1.00;;;;;;5058812;28;20451;-79
2021/04/14 06:48:37;;;;;;;5.93;2.57;;;7.00;1.00;;;;;;5055630;28;22276;-78
2021/04/14 06:51:09;;;;;;;6.67;3.07;;;7.30;1.00;;;;;;5060491;28;20468;-78
2021/04/14 06:53:56;;;;;;;5.50;2.90;;;7.10;1.00;;;;;;5059782;28;20492;-78
2021/04/14 06:56:24;;;;;;;4.07;3.13;;;7.20;1.00;;;;;;5050787;28;20453;-78
2021/04/14 06:58:55;;;;;;;10.30;2.47;;;7.30;1.00;;;;;;5055572;28;20471;-79
2021/04/14 07:01:27;;;;;;;3.13;1.97;;;7.30;1.00;;;;;;5060671;28;20463;-79
2021/04/14 07:04:01;;;;;;;2.67;2.47;;;7.40;1.00;;;;;;5042134;28;20483;-79
2021/04/14 07:06:32;;;;;;;4.13;2.20;;;7.40;1.00;;;;;;5050827;28;20501;-80
2021/04/14 07:09:05;;;;;;;3.57;2.20;;;7.50;1.00;;;;;;5054701;28;20470;-78
2021/04/14 07:11:34;;;;;;;6.27;3.53;;;7.60;1.00;;;;;;5053351;28;20479;-80
2021/04/14 07:14:01;;;;;;;6.70;4.53;;;7.60;1.00;;;;;;5059455;28;21077;-79
2021/04/14 07:16:54;;;;;;;2.73;2.20;;;7.70;1.00;;;;;;5059370;28;20474;-79
2021/04/14 07:19:42;;;;;;;3.17;2.87;;;7.80;1.00;;;;;;5062726;28;20544;-79
2021/04/14 07:22:20;;;;;;;2.53;2.33;;;7.80;1.00;;;;;;5055108;28;20470;-79
2021/04/14 07:24:51;;;;;;;3.30;2.23;;;7.80;1.00;;;;;;5050262;28;21358;-79
2021/04/14 07:27:25;;;;;;;2.83;2.10;;;8.00;1.00;;;;;;5052624;28;20517;-79
2021/04/14 07:30:00;;;;;;;4.73;2.50;;;8.10;1.00;;;;;;5053249;28;20560;-78
2021/04/14 07:32:36;;;;;;;2.80;2.60;;;8.10;1.00;;;;;;5059955;28;20953;-78
2021/04/14 07:35:13;;;;;;;4.63;3.00;;;8.30;1.00;;;;;;5053444;28;20481;-76
2021/04/14 07:37:53;;;;;;;102.07;30.63;;;8.40;1.00;;;;;;5052763;28;20466;-79
2021/04/14 07:40:27;;;;;;;9.53;4.23;;;8.50;1.00;;;;;;5049979;28;20478;-79
2021/04/14 07:43:03;;;;;;;4.00;2.63;;;8.70;1.00;;;;;;5055372;28;20474;-78
2021/04/14 07:45:34;;;;;;;6.10;2.33;;;9.00;1.00;;;;;;5055570;28;20465;-79
2021/04/14 07:48:06;;;;;;;3.50;2.00;;;9.20;1.00;;;;;;5052930;28;20959;-78
2021/04/14 07:50:36;;;;;;;2.13;1.90;;;9.40;1.00;;;;;;5055562;28;20564;-78
2021/04/14 07:53:19;;;;;;;3.23;1.70;;;9.70;1.00;;;;;;5057983;28;21150;-80
2021/04/14 07:55:48;;;;;;;2.23;1.37;;;9.80;1.00;;;;;;5058199;28;20468;-81
2021/04/14 07:58:18;;;;;;;1.60;1.50;;;9.90;1.00;;;;;;5052918;28;20476;-78
2021/04/14 08:00:47;;;;;;;3.07;1.97;;;10.00;1.00;;;;;;5056085;28;21029;-79
2021/04/14 08:03:23;;;;;;;3.13;1.50;;;10.00;1.00;;;;;;5047021;28;20492;-78
2021/04/14 08:05:50;;;;;;;6.07;3.10;;;9.90;1.00;;;;;;5054699;28;20470;-79
2021/04/14 08:08:22;;;;;;;5.10;3.40;;;10.00;1.00;;;;;;5057581;28;20471;-81
2021/04/14 08:11:02;;;;;;;3.37;1.73;;;10.00;1.00;;;;;;5050370;28;20992;-79
2021/04/14 08:13:35;;;;;;;2.00;1.73;;;10.00;1.00;;;;;;5059952;28;20489;-78
2021/04/14 08:16:31;;;;;;;3.30;1.60;;;10.10;1.00;;;;;;5057730;28;20470;-77
2021/04/14 08:19:04;;;;;;;1.90;1.80;;;10.10;1.00;;;;;;5045249;28;20455;-78
2021/04/14 08:21:36;;;;;;;2.20;1.40;;;10.20;1.00;;;;;;5046573;28;20472;-79
2021/04/14 08:24:24;;;;;;;1.87;1.67;;;10.20;1.00;;;;;;5052142;28;20479;-78
2021/04/14 08:26:53;;;;;;;2.17;1.60;;;10.20;1.00;;;;;;5053140;28;21027;-79
2021/04/14 08:29:21;;;;;;;1.63;1.53;;;10.00;1.00;;;;;;5049413;28;20468;-76
2021/04/14 08:31:50;;;;;;;9.80;4.07;;;9.80;1.00;;;;;;5043468;28;20964;-79
2021/04/14 08:34:23;;;;;;;2.45;2.25;;;9.90;1.00;;;;;;5044008;28;20485;-79
2021/04/14 08:36:54;;;;;;;2.17;1.80;;;10.00;1.00;;;;;;5039360;28;20459;-78
2021/04/14 08:39:25;;;;;;;4.27;2.00;;;10.10;1.00;;;;;;5049095;28;21018;-80
2021/04/14 08:41:52;;;;;;;2.67;2.47;;;10.10;1.00;;;;;;5053416;28;20487;-79
2021/04/14 08:44:32;;;;;;;2.70;2.20;;;10.20;1.00;;;;;;5050170;28;20513;-80
2021/04/14 08:47:16;;;;;;;2.50;1.80;;;10.20;1.00;;;;;;5049535;28;20502;-80
2021/04/14 08:49:47;;;;;;;2.50;1.90;;;10.40;1.00;;;;;;5049278;28;20464;-79
2021/04/14 08:52:38;;;;;;;2.03;1.80;;;10.40;1.00;;;;;;5043026;28;20574;-78
2021/04/14 08:55:06;;;;;;;2.57;1.50;;;10.50;1.00;;;;;;5042860;28;20595;-80
2021/04/14 08:57:33;;;;;;;6.00;2.30;;;10.60;1.00;;;;;;5047895;28;20456;-81
2021/04/14 09:00:01;;;;;;;2.67;1.83;;;10.70;1.00;;;;;;5044955;28;20492;-79
2021/04/14 09:02:29;;;;;;;3.73;2.13;;;10.60;1.00;;;;;;5042142;28;20472;-78
2021/04/14 09:04:57;;;;;;;2.90;1.80;;;10.70;1.00;;;;;;5045393;28;20483;-80
2021/04/14 09:07:30;;;;;;;2.87;1.90;;;10.70;1.00;;;;;;5041410;28;20471;-80
2021/04/14 09:09:58;;;;;;;1.70;1.40;;;10.90;1.00;;;;;;5040955;28;20869;-76
2021/04/14 09:12:37;;;;;;;2.97;1.93;;;11.00;1.00;;;;;;5044419;28;20476;-80
2021/04/14 09:15:07;;;;;;;5.20;1.63;;;11.00;1.00;;;;;;5055251;28;20990;-76
2021/04/14 09:17:35;;;;;;;2.07;1.80;;;10.90;1.00;;;;;;5048935;28;20493;-79
2021/04/14 09:20:19;;;;;;;2.00;1.90;;;10.70;1.00;;;;;;5048860;28;20853;-78
2021/04/14 09:22:58;;;;;;;2.43;1.20;;;10.60;1.00;;;;;;5046972;28;21421;-77
2021/04/14 09:25:32;;;;;;;1.43;1.33;;;10.80;1.00;;;;;;5039820;28;20464;-74
2021/04/14 09:28:02;;;;;;;2.60;1.70;;;10.90;1.00;;;;;;5045892;28;20516;-76
2021/04/14 09:30:34;;;;;;;3.03;1.60;;;10.90;1.00;;;;;;5046235;28;20470;-77
2021/04/14 09:33:18;;;;;;;3.27;1.80;;;10.80;1.00;;;;;;5045132;28;20575;-77
2021/04/14 09:36:04;;;;;;;4.07;1.53;;;10.70;1.00;;;;;;5054240;28;20965;-77
2021/04/14 09:38:46;;;;;;;6.13;1.40;;;10.60;1.00;;;;;;5051630;28;20461;-75
2021/04/14 09:41:36;;;;;;;1.97;1.30;;;10.60;1.00;;;;;;5051399;28;20478;-77
2021/04/14 09:44:17;;;;;;;2.37;1.60;;;10.60;1.00;;;;;;5041923;28;21132;-77
2021/04/14 09:47:18;;;;;;;1.90;1.70;;;10.60;1.00;;;;;;5041493;28;20508;-77
2021/04/14 09:49:49;;;;;;;4.27;1.70;;;10.60;1.00;;;;;;5050039;28;20852;-76
2021/04/14 09:52:24;;;;;;;2.17;1.97;;;10.60;1.00;;;;;;5051654;28;20450;-77
2021/04/14 09:54:55;;;;;;;2.80;2.00;;;10.60;1.00;;;;;;5044765;28;22239;-77
2021/04/14 09:57:29;;;;;;;2.60;1.80;;;10.50;1.00;;;;;;5047901;28;20901;-76
2021/04/14 09:59:58;;;;;;;8.03;2.70;;;10.40;1.00;;;;;;5050826;28;20477;-77
2021/04/14 10:02:27;;;;;;;2.50;1.80;;;10.30;1.00;;;;;;5061925;28;20449;-76
2021/04/14 10:04:54;;;;;;;3.97;1.80;;;10.30;1.00;;;;;;5052063;28;20514;-78
2021/04/14 10:07:27;;;;;;;3.33;2.13;;;10.30;1.00;;;;;;5049012;28;20467;-77
2021/04/14 10:10:05;;;;;;;2.33;1.93;;;10.30;1.00;;;;;;5052627;28;20461;-75
2021/04/14 10:12:32;;;;;;;3.03;1.87;;;10.30;1.00;;;;;;5053218;28;20466;-77
2021/04/14 10:15:01;;;;;;;2.87;2.43;;;10.10;1.00;;;;;;5053204;28;20516;-78
2021/04/14 10:17:31;;;;;;;2.80;1.60;;;10.10;1.00;;;;;;5055376;28;20462;-75
2021/04/14 10:20:10;;;;;;;2.20;1.60;;;10.10;1.00;;;;;;5053932;28;20464;-77
2021/04/14 10:22:44;;;;;;;2.60;1.70;;;10.10;1.00;;;;;;5062161;28;20482;-77
2021/04/14 10:25:18;;;;;;;4.03;1.50;;;10.10;1.00;;;;;;5057574;28;20470;-76
2021/04/14 10:27:47;;;;;;;2.63;1.50;;;10.00;1.00;;;;;;5056581;28;20971;-75
2021/04/14 10:30:20;;;;;;;2.43;1.60;;;10.00;1.00;;;;;;5057543;28;20465;-75
2021/04/14 10:32:49;;;;;;;2.97;1.60;;;9.90;1.00;;;;;;5045394;28;20483;-77
2021/04/14 10:35:20;;;;;;;2.33;2.13;;;10.00;1.00;;;;;;5051979;28;20485;-77
2021/04/14 10:37:51;;;;;;;3.40;1.67;;;9.90;1.00;;;;;;5055128;28;20894;-76
2021/04/14 10:40:23;;;;;;;4.90;1.70;;;9.90;1.00;;;;;;5052145;28;20462;-77
2021/04/14 10:42:53;;;;;;;2.00;1.20;;;10.00;1.00;;;;;;5054031;28;20487;-76
2021/04/14 10:45:21;;;;;;;1.60;1.50;;;10.10;1.00;;;;;;5053672;28;21050;-78
2021/04/14 10:47:52;;;;;;;3.80;1.30;;;10.00;1.00;;;;;;5065786;28;20475;-78
2021/04/14 10:50:24;;;;;;;1.40;1.30;;;10.10;1.00;;;;;;5054469;28;20600;-77
2021/04/14 10:53:00;;;;;;;1.90;1.50;;;10.10;1.00;;;;;;5058000;28;21291;-77
2021/04/14 10:55:32;;;;;;;1.97;1.63;;;10.20;1.00;;;;;;5059936;28;20461;-79
2021/04/14 10:58:04;;;;;;;3.33;2.10;;;10.10;1.00;;;;;;5054548;28;20464;-79
2021/04/14 11:00:33;;;;;;;2.47;1.50;;;10.20;1.00;;;;;;5054227;28;20456;-77
2021/04/14 11:03:05;;;;;;;1.33;1.23;;;10.20;1.00;;;;;;5049698;28;20770;-78
2021/04/14 11:05:35;;;;;;;11.30;4.40;;;10.20;1.00;;;;;;5048795;28;20459;-80
2021/04/14 11:08:07;;;;;;;4.40;2.27;;;10.20;1.00;;;;;;5045906;28;20459;-78
2021/04/14 11:10:37;;;;;;;1.70;1.60;;;10.30;1.00;;;;;;5053476;28;20461;-78
2021/04/14 11:13:10;;;;;;;1.97;1.70;;;10.30;1.00;;;;;;5053888;28;20577;-78
2021/04/14 11:15:42;;;;;;;1.67;1.37;;;10.70;1.00;;;;;;5055415;28;20461;-78
2021/04/14 11:18:12;;;;;;;1.60;1.50;;;10.50;1.00;;;;;;5050544;28;20468;-77
2021/04/14 11:20:43;;;;;;;3.13;1.77;;;10.50;1.00;;;;;;5045328;28;20462;-77
2021/04/14 11:23:23;;;;;;;2.50;1.77;;;10.60;1.00;;;;;;5059017;28;20507;-78
2021/04/14 11:25:51;;;;;;;3.33;1.70;;;10.60;1.00;;;;;;5052979;28;20851;-77
2021/04/14 11:28:20;;;;;;;2.97;1.77;;;10.70;1.00;;;;;;5058315;28;20460;-74
2021/04/14 11:30:53;;;;;;;3.33;1.60;;;10.70;1.00;;;;;;5045235;28;20472;-77
2021/04/14 11:33:34;;;;;;;6.23;1.83;;;10.70;1.00;;;;;;5044346;28;20485;-76
2021/04/14 11:36:03;;;;;;;1.93;1.37;;;10.70;1.00;;;;;;5049715;28;20471;-74
2021/04/14 11:38:35;;;;;;;3.90;2.27;;;10.70;1.00;;;;;;5047367;28;20470;-73
2021/04/14 11:41:14;;;;;;;1.60;1.50;;;10.80;1.00;;;;;;5054440;28;20979;-80
2021/04/14 11:43:42;;;;;;;4.77;1.87;;;10.60;1.00;;;;;;5045545;28;20484;-78
2021/04/14 11:46:25;;;;;;;2.40;1.50;;;10.60;1.00;;;;;;5052723;28;20479;-79
2021/04/14 11:48:56;;;;;;;2.57;2.00;;;10.50;1.00;;;;;;5049436;28;20467;-79
2021/04/14 11:51:31;;;;;;;3.53;2.03;;;10.60;1.00;;;;;;5049792;28;20462;-78
2021/04/14 11:54:02;;;;;;;3.83;1.87;;;10.50;1.00;;;;;;5061885;28;20491;-79
2021/04/14 11:56:44;;;;;;;1.47;1.37;;;10.50;1.00;;;;;;5043984;28;21057;-80
2021/04/14 11:59:22;;;;;;;2.47;1.97;;;10.40;1.00;;;;;;5043739;28;20472;-79
2021/04/14 12:01:54;;;;;;;1.70;1.60;;;10.40;1.00;;;;;;5049088;28;21774;-79
2021/04/14 12:04:21;;;;;;;2.20;1.33;;;10.40;1.00;;;;;;5059014;28;20533;-79
2021/04/14 12:06:48;;;;;;;3.03;1.90;;;10.40;1.00;;;;;;5044285;28;20459;-79
2021/04/14 12:09:16;;;;;;;2.10;1.57;;;10.60;1.00;;;;;;5050120;28;20480;-81
2021/04/14 12:11:44;;;;;;;2.53;2.07;;;10.50;1.00;;;;;;5054500;28;20519;-79
2021/04/14 12:14:11;;;;;;;1.83;1.40;;;10.40;1.00;;;;;;5052929;28;20990;-79
2021/04/14 12:16:38;;;;;;;2.10;1.50;;;10.30;1.00;;;;;;5048029;28;20468;-78
2021/04/14 12:19:06;;;;;;;4.30;1.27;;;10.40;1.00;;;;;;5048329;28;20465;-76
2021/04/14 12:21:33;;;;;;;1.27;1.17;;;10.30;1.00;;;;;;5043724;28;20467;-79
2021/04/14 12:24:00;;;;;;;3.00;1.60;;;10.40;1.00;;;;;;5046896;28;20907;-79
2021/04/14 12:26:29;;;;;;;1.40;1.30;;;10.40;1.00;;;;;;5053573;28;20461;-79
2021/04/14 12:28:56;;;;;;;1.60;1.50;;;10.30;1.00;;;;;;5048188;28;20470;-81
2021/04/14 12:31:23;;;;;;;3.10;1.60;;;10.40;1.00;;;;;;5051256;28;20556;-80
2021/04/14 12:33:51;;;;;;;1.40;1.30;;;10.50;1.00;;;;;;5053480;28;20487;-78
2021/04/14 12:36:18;;;;;;;2.10;1.40;;;10.50;1.00;;;;;;5055443;28;20478;-80
2021/04/14 12:38:46;;;;;;;3.60;1.97;;;10.40;1.00;;;;;;5055191;28;20468;-80
2021/04/14 12:41:13;;;;;;;2.00;1.60;;;10.40;1.00;;;;;;5071919;28;20474;-79
2021/04/14 12:43:41;;;;;;;3.13;2.93;;;10.50;1.00;;;;;;5057280;28;21224;-80
2021/04/14 12:46:08;;;;;;;7.20;1.73;;;10.50;1.00;;;;;;5057258;28;20479;-80
2021/04/14 12:48:39;;;;;;;1.83;1.73;;;10.30;1.00;;;;;;5049890;28;20458;-79
2021/04/14 12:51:26;;;;;;;3.50;1.80;;;10.20;1.00;;;;;;5057881;28;20497;-80
2021/04/14 12:54:06;;;;;;;3.30;2.33;;;10.10;1.00;;;;;;5049921;28;20909;-79
2021/04/14 12:56:37;;;;;;;4.80;2.13;;;10.00;1.00;;;;;;5052521;28;20469;-79
2021/04/14 12:59:23;;;;;;;2.13;2.03;;;9.80;1.00;;;;;;5055236;28;20980;-79
2021/04/14 13:01:56;;;;;;;2.20;2.00;;;9.80;1.00;;;;;;5046396;28;20450;-77
2021/04/14 13:04:31;;;;;;;1.97;1.77;;;9.70;1.00;;;;;;5042795;28;20473;-77
2021/04/14 13:07:04;;;;;;;2.90;1.83;;;9.70;1.00;;;;;;5051534;28;20466;-77
2021/04/14 13:09:35;;;;;;;2.80;2.33;;;9.60;1.00;;;;;;5049070;28;20468;-75
2021/04/14 13:12:08;;;;;;;3.20;1.70;;;9.50;1.00;;;;;;5041055;28;20462;-76
2021/04/14 13:14:36;;;;;;;5.80;2.23;;;9.60;1.00;;;;;;5041651;28;20529;-77
2021/04/14 13:17:10;;;;;;;2.50;2.30;;;9.60;1.00;;;;;;5043376;28;21118;-77
2021/04/14 13:19:40;;;;;;;3.57;1.70;;;9.50;1.00;;;;;;5054530;28;20469;-78